Time;durP1;ratioP1;P1;durP2;ratioP2;P2;SDS_P1;SDS_P2;PMS_P1;PMS_P2;Temp;Humidity;BMP_temperature;BMP_pressure;BME280_temperature;BME280_humidity;BME280_pressure;Samples;Min_cycle;Max_cycle;Signal;HPM_P1;HPM_P2
2021/03/17 00:00:41;;;;;;;9.05;2.30;;;8.50;99.90;;;;;;1940618;73;21113;-65
2021/03/17 00:03:09;;;;;;;10.32;2.33;;;8.60;99.90;;;;;;1941993;73;22046;-67
2021/03/17 00:05:38;;;;;;;9.78;2.72;;;8.60;99.90;;;;;;1938951;73;21093;-65
2021/03/17 00:08:06;;;;;;;6.78;1.80;;;8.60;99.90;;;;;;1940608;73;21043;-65
2021/03/17 00:10:37;;;;;;;7.22;1.70;;;8.50;99.90;;;;;;1944250;73;21564;-65
2021/03/17 00:13:06;;;;;;;11.50;2.08;;;8.50;99.90;;;;;;1939406;73;21066;-66
2021/03/17 00:15:39;;;;;;;5.25;1.40;;;8.50;99.90;;;;;;1943886;73;21152;-65
2021/03/17 00:18:09;;;;;;;5.62;1.30;;;8.40;99.90;;;;;;1939475;73;21203;-67
2021/03/17 00:20:37;;;;;;;7.17;1.50;;;8.40;99.90;;;;;;1941379;73;21174;-65
2021/03/17 00:23:05;;;;;;;8.23;1.80;;;8.40;99.90;;;;;;1941988;73;21110;-64
2021/03/17 00:25:35;;;;;;;6.22;1.67;;;8.40;99.90;;;;;;1939100;73;21093;-64
2021/03/17 00:28:03;;;;;;;9.50;1.72;;;8.40;99.90;;;;;;1943999;73;21058;-65
2021/03/17 00:30:36;;;;;;;7.10;1.90;;;8.30;99.90;;;;;;1940942;73;21105;-65
2021/03/17 00:33:03;;;;;;;;;;;8.30;99.90;;;;;;1942899;73;21117;-68
2021/03/17 00:35:31;;;;;;;7.62;1.80;;;8.30;99.90;;;;;;1938905;73;20205;-67
2021/03/17 00:37:59;;;;;;;14.10;2.55;;;8.20;99.90;;;;;;1939834;73;21194;-67
2021/03/17 00:40:26;;;;;;;7.20;1.82;;;8.30;99.90;;;;;;1945880;73;21089;-66
2021/03/17 00:42:54;;;;;;;11.33;1.60;;;8.30;99.90;;;;;;1940945;73;21070;-67
2021/03/17 00:45:22;;;;;;;8.53;1.62;;;8.20;99.90;;;;;;1940679;73;21643;-67
2021/03/17 00:47:49;;;;;;;9.65;2.02;;;8.20;99.90;;;;;;1944555;73;21688;-67
2021/03/17 00:50:18;;;;;;;9.25;1.92;;;8.20;99.90;;;;;;1939876;73;21018;-67
2021/03/17 00:52:45;;;;;;;9.73;2.05;;;8.20;99.90;;;;;;1939824;73;21014;-66
2021/03/17 00:55:13;;;;;;;10.80;1.80;;;8.30;99.90;;;;;;1942907;73;20995;-67
2021/03/17 00:57:42;;;;;;;10.15;1.87;;;8.30;99.90;;;;;;1938446;73;21539;-67
2021/03/17 01:00:12;;;;;;;7.62;1.57;;;8.20;99.90;;;;;;1940841;73;21074;-67
2021/03/17 01:02:40;;;;;;;8.08;1.70;;;8.20;99.90;;;;;;1938390;73;21022;-66
2021/03/17 01:05:08;;;;;;;7.83;1.72;;;8.20;99.90;;;;;;1941661;73;21081;-67
2021/03/17 01:07:36;;;;;;;7.45;1.42;;;8.20;99.90;;;;;;1941568;73;21042;-66
2021/03/17 01:10:13;;;;;;;7.30;1.72;;;8.20;99.90;;;;;;1935271;73;21553;-67
2021/03/17 01:12:41;;;;;;;10.70;2.05;;;8.20;99.90;;;;;;1937792;73;21530;-66
2021/03/17 01:15:12;;;;;;;7.12;1.62;;;8.10;99.90;;;;;;1939699;73;21186;-66
2021/03/17 01:17:40;;;;;;;6.53;1.55;;;8.10;99.90;;;;;;1939624;72;21524;-65
2021/03/17 01:20:09;;;;;;;3.90;1.37;;;8.10;99.90;;;;;;1937350;73;22180;-65
2021/03/17 01:22:37;;;;;;;8.40;1.85;;;8.20;99.90;;;;;;1948409;72;21144;-66
2021/03/17 01:25:07;;;;;;;14.47;1.82;;;8.20;99.90;;;;;;1944403;73;21214;-65
2021/03/17 01:27:35;;;;;;;7.03;1.47;;;8.20;99.90;;;;;;1942163;73;22226;-65
2021/03/17 01:30:05;;;;;;;6.58;1.25;;;8.20;99.90;;;;;;1938577;73;21081;-66
2021/03/17 01:32:33;;;;;;;10.48;1.15;;;8.20;99.90;;;;;;1940475;73;21575;-65
2021/03/17 01:35:02;;;;;;;10.15;2.20;;;8.20;99.90;;;;;;1943615;73;21241;-66
2021/03/17 01:37:29;;;;;;;8.08;1.40;;;8.20;99.90;;;;;;1942389;73;21555;-65
2021/03/17 01:39:57;;;;;;;8.10;1.30;;;8.20;99.90;;;;;;1938823;73;21155;-66
2021/03/17 01:42:24;;;;;;;7.28;1.20;;;8.10;99.90;;;;;;1940452;73;21065;-65
2021/03/17 01:44:51;;;;;;;8.68;1.65;;;8.10;99.90;;;;;;1941675;73;21050;-65
2021/03/17 01:47:19;;;;;;;5.90;1.22;;;8.10;99.90;;;;;;1940922;73;21521;-66
2021/03/17 01:49:46;;;;;;;10.20;1.42;;;8.10;99.90;;;;;;1939132;73;21086;-66
2021/03/17 01:52:14;;;;;;;10.40;2.05;;;8.10;99.90;;;;;;1938148;73;21003;-66
2021/03/17 01:54:42;;;;;;;9.08;1.72;;;8.10;99.90;;;;;;1938494;73;21054;-66
2021/03/17 01:57:10;;;;;;;6.62;1.45;;;8.10;99.90;;;;;;1937890;73;21077;-65
2021/03/17 01:59:37;;;;;;;7.60;1.37;;;8.10;99.90;;;;;;1941604;72;21199;-65
2021/03/17 02:02:05;;;;;;;4.60;1.17;;;8.00;99.90;;;;;;1940079;73;21058;-65
2021/03/17 04:49:14;;;;;;;7.90;1.98;;;7.70;99.90;;;;;;1892964;75;21109;-65
2021/03/17 04:51:44;;;;;;;7.08;1.80;;;7.70;99.90;;;;;;1892013;75;21101;-65
2021/03/17 04:54:11;;;;;;;5.33;1.60;;;7.80;99.90;;;;;;1892058;75;21165;-65
2021/03/17 04:56:41;;;;;;;12.07;2.15;;;7.80;99.90;;;;;;1893771;75;21640;-65
2021/03/17 04:59:11;;;;;;;14.60;2.37;;;7.90;99.90;;;;;;1893965;75;21093;-64
2021/03/17 05:01:41;;;;;;;9.28;1.77;;;7.90;99.90;;;;;;1894543;75;21085;-64
2021/03/17 05:04:11;;;;;;;10.48;1.92;;;7.90;99.90;;;;;;1896872;75;21137;-64
2021/03/17 05:06:41;;;;;;;11.88;1.92;;;7.90;99.90;;;;;;1896100;75;21163;-65
2021/03/17 05:09:11;;;;;;;9.63;2.12;;;7.90;99.90;;;;;;1894750;75;21089;-65
2021/03/17 05:11:40;;;;;;;10.85;2.12;;;7.90;99.90;;;;;;1892347;75;21507;-64
2021/03/17 05:14:08;;;;;;;7.53;1.92;;;7.90;99.90;;;;;;1894153;75;22401;-66
2021/03/17 05:16:37;;;;;;;9.83;2.08;;;7.90;99.90;;;;;;1892967;75;21038;-66
2021/03/17 05:19:06;;;;;;;8.25;1.42;;;7.90;99.90;;;;;;1895568;75;21344;-65
2021/03/17 05:21:35;;;;;;;8.78;1.70;;;8.00;99.90;;;;;;1895191;75;21085;-66
2021/03/17 05:24:04;;;;;;;7.75;1.50;;;7.90;99.90;;;;;;1894861;75;21133;-66
2021/03/17 05:26:35;;;;;;;7.78;1.60;;;7.90;99.90;;;;;;1898786;75;21102;-65
2021/03/17 05:29:03;;;;;;;8.83;1.90;;;7.90;99.90;;;;;;1896425;75;21136;-66
2021/03/17 05:31:33;;;;;;;8.88;1.90;;;7.90;99.90;;;;;;1897748;75;21034;-65
2021/03/17 05:34:00;;;;;;;7.58;1.65;;;7.90;99.90;;;;;;1895188;75;21061;-65
2021/03/17 05:36:30;;;;;;;9.63;2.00;;;7.90;99.90;;;;;;1895362;74;21085;-66
2021/03/17 05:38:57;;;;;;;6.42;2.02;;;7.90;99.90;;;;;;1897231;75;21101;-65
2021/03/17 05:41:25;;;;;;;8.83;1.50;;;7.90;99.90;;;;;;1893054;75;21187;-65
2021/03/17 05:43:54;;;;;;;9.38;1.60;;;7.90;99.90;;;;;;1895631;75;21615;-65
2021/03/17 05:46:22;;;;;;;6.70;1.52;;;7.90;99.90;;;;;;1893076;74;21077;-65
2021/03/17 05:48:50;;;;;;;6.20;1.37;;;8.00;99.90;;;;;;1894257;75;21116;-66
2021/03/17 05:51:18;;;;;;;8.15;1.82;;;8.00;99.90;;;;;;1896239;74;21097;-65
2021/03/17 05:53:46;;;;;;;7.35;1.77;;;8.00;99.90;;;;;;1895405;74;21505;-64
2021/03/17 05:56:15;;;;;;;10.18;1.75;;;8.00;99.90;;;;;;1893898;74;21203;-65
2021/03/17 05:58:44;;;;;;;8.35;1.50;;;8.00;99.90;;;;;;1892264;74;21019;-65
2021/03/17 06:01:16;;;;;;;15.88;2.00;;;8.00;99.90;;;;;;1892764;75;21050;-65
2021/03/17 06:03:43;;;;;;;;;;;8.00;99.90;;;;;;1892970;75;21235;-67
2021/03/17 06:06:13;;;;;;;12.25;2.45;;;8.00;99.90;;;;;;1894238;75;20173;-67
2021/03/17 06:08:46;;;;;;;8.00;1.57;;;7.90;99.90;;;;;;1894827;75;21586;-68
2021/03/17 06:11:15;;;;;;;9.23;1.55;;;8.00;99.90;;;;;;1895518;75;21167;-68
2021/03/17 06:13:48;;;;;;;9.70;1.60;;;7.90;99.90;;;;;;1891116;75;21152;-69
2021/03/17 06:16:19;;;;;;;8.38;1.92;;;8.00;99.90;;;;;;1891283;75;21952;-68
2021/03/17 06:18:49;;;;;;;6.30;1.52;;;8.00;99.90;;;;;;1891006;75;21618;-68
2021/03/17 06:21:20;;;;;;;5.70;1.55;;;8.00;99.90;;;;;;1895706;75;21093;-68
2021/03/17 06:23:49;;;;;;;6.80;1.77;;;8.00;99.90;;;;;;1895552;75;21145;-69
2021/03/17 06:26:17;;;;;;;7.03;1.60;;;8.10;99.90;;;;;;1895793;75;21544;-69
2021/03/17 06:28:46;;;;;;;9.55;1.65;;;8.10;99.90;;;;;;1896241;75;21023;-70
2021/03/17 06:31:15;;;;;;;10.10;1.80;;;8.10;99.90;;;;;;1894433;74;21174;-69
2021/03/17 06:33:43;;;;;;;8.58;1.77;;;8.10;99.90;;;;;;1892292;75;21146;-69
2021/03/17 06:36:34;;;;;;;7.40;1.72;;;8.20;99.90;;;;;;1896914;74;21114;-69
2021/03/17 06:39:07;;;;;;;7.92;1.40;;;8.20;99.90;;;;;;1861918;76;21119;-72
2021/03/17 06:41:55;;;;;;;9.70;1.80;;;8.20;99.90;;;;;;1863286;76;21063;-68
2021/03/17 06:44:25;;;;;;;10.40;1.50;;;8.20;99.90;;;;;;1887461;74;21142;-68
2021/03/17 06:47:20;;;;;;;7.20;1.65;;;8.20;99.90;;;;;;1898100;74;21049;-71
2021/03/17 06:49:53;;;;;;;5.22;1.15;;;8.30;99.90;;;;;;1893883;74;21145;-69
2021/03/17 06:52:35;;;;;;;10.00;2.02;;;8.30;99.90;;;;;;1890103;74;21219;-68
2021/03/17 06:55:11;;;;;;;8.23;1.60;;;8.30;99.90;;;;;;1894991;74;21077;-70
2021/03/17 06:57:41;;;;;;;9.73;1.80;;;8.30;99.80;;;;;;1892601;74;21572;-69
2021/03/17 07:00:31;;;;;;;8.63;1.82;;;8.30;99.90;;;;;;1891712;74;21188;-68
2021/03/17 07:03:08;;;;;;;9.70;1.82;;;8.40;99.90;;;;;;1895166;74;21714;-69
2021/03/17 07:05:38;;;;;;;8.80;1.27;;;8.40;99.90;;;;;;1885237;74;21102;-68
2021/03/17 07:08:30;;;;;;;7.78;1.75;;;8.40;99.90;;;;;;1893731;74;21908;-69
2021/03/17 07:10:59;;;;;;;7.85;1.40;;;8.40;99.90;;;;;;1892453;74;21110;-68
2021/03/17 07:13:28;;;;;;;9.05;1.85;;;8.40;99.90;;;;;;1892501;74;21212;-71
2021/03/17 07:15:58;;;;;;;10.93;1.57;;;8.50;99.90;;;;;;1891378;74;21102;-70
2021/03/17 07:18:28;;;;;;;9.90;1.47;;;8.50;99.90;;;;;;1893354;74;21126;-68
2021/03/17 07:21:02;;;;;;;9.48;2.12;;;8.50;99.90;;;;;;1893721;74;21098;-68
2021/03/17 07:23:42;;;;;;;8.43;1.75;;;8.60;99.90;;;;;;1893253;74;21217;-67
2021/03/17 07:26:26;;;;;;;10.88;1.92;;;8.60;99.90;;;;;;1890688;74;21097;-68
2021/03/17 07:29:03;;;;;;;10.45;1.70;;;8.60;99.90;;;;;;1890261;74;21063;-68
2021/03/17 07:31:42;;;;;;;12.85;1.70;;;8.60;99.90;;;;;;1894174;74;21109;-67
2021/03/17 07:34:18;;;;;;;7.58;1.60;;;8.60;99.90;;;;;;1893583;74;21145;-67
2021/03/17 07:36:57;;;;;;;15.63;2.10;;;8.60;99.90;;;;;;1894413;74;21063;-68
2021/03/17 07:39:39;;;;;;;12.73;1.75;;;8.60;99.90;;;;;;1895202;74;21095;-68
2021/03/17 07:42:09;;;;;;;7.28;1.67;;;8.70;99.90;;;;;;1896049;74;21094;-66
2021/03/17 07:44:39;;;;;;;6.60;1.70;;;8.70;99.90;;;;;;1891827;74;21115;-68
2021/03/17 07:47:12;;;;;;;10.45;1.92;;;8.80;99.90;;;;;;1892893;74;21089;-67
2021/03/17 07:49:45;;;;;;;10.98;2.05;;;8.80;99.90;;;;;;1891573;74;21587;-68
2021/03/17 07:52:18;;;;;;;11.20;1.75;;;8.90;99.90;;;;;;1891389;74;21687;-69
2021/03/17 07:54:52;;;;;;;12.35;1.98;;;8.90;99.90;;;;;;1891013;74;21130;-68
2021/03/17 07:57:26;;;;;;;6.85;1.67;;;9.00;99.90;;;;;;1894909;74;21086;-68
2021/03/17 07:59:51;;;;;;;8.07;1.60;;;9.00;99.90;;;;;;1892339;74;21118;-67
2021/03/17 08:02:20;;;;;;;8.38;1.57;;;9.00;99.90;;;;;;1888653;74;21375;-67
2021/03/17 08:04:48;;;;;;;11.53;1.55;;;9.00;99.90;;;;;;1894061;74;21190;-68
2021/03/17 08:07:17;;;;;;;15.32;3.40;;;9.00;99.90;;;;;;1896344;74;21608;-67
2021/03/17 08:09:46;;;;;;;13.83;2.20;;;9.10;99.90;;;;;;1893673;74;21044;-67
2021/03/17 08:12:14;;;;;;;9.95;1.65;;;9.10;99.90;;;;;;1893029;74;21169;-67
2021/03/17 08:14:43;;;;;;;11.60;2.30;;;9.20;99.90;;;;;;1897262;73;21138;-67
2021/03/17 08:17:11;;;;;;;12.68;2.02;;;9.20;99.90;;;;;;1894570;74;21247;-67
2021/03/17 08:19:39;;;;;;;8.93;2.47;;;9.20;99.90;;;;;;1894290;74;21411;-67
2021/03/17 08:22:07;;;;;;;10.38;2.15;;;9.20;99.90;;;;;;1889929;74;21612;-67
2021/03/17 08:24:40;;;;;;;9.68;1.70;;;9.30;99.90;;;;;;1891231;74;21040;-67
2021/03/17 08:27:11;;;;;;;10.32;1.85;;;9.30;99.90;;;;;;1893252;74;21125;-67
2021/03/17 08:29:40;;;;;;;10.20;2.02;;;9.40;99.90;;;;;;1894150;74;21123;-67
2021/03/17 08:32:09;;;;;;;8.83;2.22;;;9.30;99.90;;;;;;1895340;74;21576;-67
2021/03/17 08:34:38;;;;;;;13.55;2.10;;;9.40;99.90;;;;;;1891798;74;21193;-67
2021/03/17 08:37:10;;;;;;;7.35;1.87;;;9.40;99.90;;;;;;1893267;74;21079;-67
2021/03/17 08:39:40;;;;;;;12.18;1.80;;;9.50;99.90;;;;;;1892763;74;21163;-67
2021/03/17 08:42:16;;;;;;;8.48;1.70;;;9.40;99.90;;;;;;1892646;74;21112;-67
2021/03/17 08:44:46;;;;;;;10.08;2.00;;;9.50;99.90;;;;;;1888039;74;22348;-67
2021/03/17 08:47:22;;;;;;;10.72;1.60;;;9.50;99.90;;;;;;1889970;74;21105;-68
2021/03/17 08:49:52;;;;;;;14.45;4.75;;;9.50;99.90;;;;;;1893029;73;21217;-68
2021/03/17 08:52:25;;;;;;;8.85;2.50;;;9.50;99.90;;;;;;1893764;74;21176;-68
2021/03/17 08:54:58;;;;;;;7.55;1.95;;;9.50;99.90;;;;;;1888195;74;21139;-67
2021/03/17 08:57:27;;;;;;;9.05;1.82;;;9.50;99.90;;;;;;1891162;74;21132;-67
2021/03/17 09:00:00;;;;;;;12.53;1.87;;;9.60;99.90;;;;;;1888085;74;21180;-67
2021/03/17 09:02:31;;;;;;;14.60;2.55;;;9.60;99.90;;;;;;1887726;74;21097;-67
2021/03/17 09:05:03;;;;;;;10.32;2.10;;;9.70;99.90;;;;;;1891439;74;21181;-67
2021/03/17 09:07:33;;;;;;;12.68;2.10;;;9.70;99.90;;;;;;1890475;74;22398;-68
2021/03/17 09:10:06;;;;;;;12.88;2.08;;;9.70;99.90;;;;;;1892070;74;21630;-68
2021/03/17 09:12:37;;;;;;;14.73;1.95;;;9.70;99.90;;;;;;1890068;73;20991;-67
2021/03/17 09:15:16;;;;;;;11.20;2.30;;;9.80;99.90;;;;;;1893666;74;21051;-68
2021/03/17 09:17:49;;;;;;;10.15;2.20;;;9.80;99.90;;;;;;1892953;74;21024;-67
2021/03/17 09:20:29;;;;;;;8.40;1.50;;;9.90;99.90;;;;;;1893361;74;21497;-67
2021/03/17 09:23:05;;;;;;;11.65;2.00;;;9.90;99.90;;;;;;1896060;74;21188;-69
2021/03/17 09:25:41;;;;;;;6.87;1.60;;;9.90;99.70;;;;;;1895691;74;21079;-67
2021/03/17 09:28:12;;;;;;;9.65;1.52;;;10.00;99.10;;;;;;1893383;74;21584;-67
2021/03/17 09:30:48;;;;;;;8.50;1.40;;;10.00;99.20;;;;;;1888407;74;21040;-67
2021/03/17 09:33:27;;;;;;;9.10;1.70;;;10.00;98.30;;;;;;1892217;74;21071;-68
2021/03/17 09:36:01;;;;;;;10.10;1.50;;;10.10;98.40;;;;;;1891699;74;21097;-67
2021/03/17 09:38:31;;;;;;;6.60;1.22;;;10.20;98.40;;;;;;1891974;73;21215;-67
2021/03/17 09:41:05;;;;;;;7.15;1.10;;;10.30;98.20;;;;;;1889174;74;22180;-68
2021/03/17 09:43:39;;;;;;;7.95;1.12;;;10.40;98.40;;;;;;1893546;74;21178;-67
2021/03/17 09:46:24;;;;;;;6.90;1.67;;;10.50;98.70;;;;;;1890861;74;21507;-68
2021/03/17 09:48:55;;;;;;;6.25;1.22;;;10.70;98.60;;;;;;1896961;74;21025;-69
2021/03/17 09:51:31;;;;;;;10.82;1.67;;;10.80;97.60;;;;;;1893894;74;21098;-68
2021/03/17 09:54:03;;;;;;;6.83;1.35;;;10.90;98.50;;;;;;1890575;74;21125;-67
2021/03/17 09:56:53;;;;;;;5.60;1.40;;;11.00;97.20;;;;;;1897425;74;21532;-66
2021/03/17 09:59:38;;;;;;;9.65;1.65;;;11.10;96.60;;;;;;1894374;74;21039;-69
2021/03/17 10:02:14;;;;;;;7.47;1.37;;;11.30;97.10;;;;;;1894172;73;21898;-67
2021/03/17 10:04:45;;;;;;;4.33;0.98;;;11.40;97.90;;;;;;1894737;74;21101;-66
2021/03/17 10:07:15;;;;;;;7.85;1.57;;;11.60;96.50;;;;;;1896312;74;21093;-66
2021/03/17 10:09:44;;;;;;;5.67;1.27;;;11.70;96.40;;;;;;1890798;74;21072;-67
2021/03/17 10:12:17;;;;;;;9.15;1.60;;;11.70;96.10;;;;;;1892182;74;21254;-67
2021/03/17 10:14:57;;;;;;;4.72;1.30;;;11.90;95.90;;;;;;1891672;74;21581;-68
2021/03/17 10:17:27;;;;;;;5.70;1.57;;;12.00;95.70;;;;;;1894574;74;21380;-68
2021/03/17 10:20:00;;;;;;;8.65;1.82;;;12.10;95.40;;;;;;1894048;74;21215;-67
2021/03/17 10:22:30;;;;;;;6.33;1.70;;;12.10;94.60;;;;;;1890471;74;21478;-67
2021/03/17 10:24:59;;;;;;;5.72;1.32;;;12.10;94.00;;;;;;1894922;74;21131;-67
2021/03/17 10:27:33;;;;;;;5.67;1.10;;;12.10;94.10;;;;;;1893977;74;21067;-67
2021/03/17 10:30:06;;;;;;;6.65;1.40;;;12.20;93.90;;;;;;1894470;74;21622;-67
2021/03/17 10:32:37;;;;;;;7.03;1.60;;;12.20;94.90;;;;;;1878032;74;21095;-67
2021/03/17 10:35:08;;;;;;;6.92;1.40;;;12.30;94.10;;;;;;1891071;74;21085;-68
2021/03/17 10:37:36;;;;;;;8.65;1.40;;;12.30;94.30;;;;;;1888399;74;21156;-68
2021/03/17 10:40:16;;;;;;;6.03;1.25;;;12.50;94.70;;;;;;1893340;74;21180;-68
2021/03/17 10:42:46;;;;;;;5.25;1.17;;;12.60;94.10;;;;;;1896112;74;21112;-68
2021/03/17 10:45:17;;;;;;;9.08;1.50;;;12.70;93.30;;;;;;1890163;74;22615;-69
2021/03/17 10:47:46;;;;;;;4.15;1.10;;;12.70;93.70;;;;;;1895604;73;21091;-69
2021/03/17 10:50:17;;;;;;;6.40;1.65;;;12.80;92.70;;;;;;1893932;74;21039;-70
2021/03/17 10:52:47;;;;;;;8.60;1.80;;;12.60;92.50;;;;;;1893509;74;21528;-68
2021/03/17 10:55:18;;;;;;;10.90;1.75;;;12.50;92.80;;;;;;1890665;74;21093;-68
2021/03/17 10:57:47;;;;;;;7.58;1.85;;;12.60;94.40;;;;;;1890244;74;21085;-69
2021/03/17 11:00:21;;;;;;;7.97;1.47;;;12.60;93.70;;;;;;1892598;74;21557;-68
2021/03/17 11:02:49;;;;;;;7.05;1.50;;;12.70;94.80;;;;;;1892929;74;21168;-70
2021/03/17 11:05:22;;;;;;;7.25;1.60;;;12.70;94.20;;;;;;1897851;74;21580;-67
2021/03/17 11:08:05;;;;;;;15.23;7.78;;;12.70;93.10;;;;;;1892591;74;21545;-67
2021/03/17 11:10:42;;;;;;;8.38;2.10;;;12.60;93.10;;;;;;1889757;74;21103;-67
2021/03/17 11:13:21;;;;;;;8.53;1.60;;;12.40;93.00;;;;;;1892750;74;21694;-68
2021/03/17 11:15:58;;;;;;;6.78;1.80;;;12.40;93.20;;;;;;1890910;74;21203;-69
2021/03/17 11:18:46;;;;;;;7.90;1.20;;;12.40;94.30;;;;;;1890046;74;21099;-70
2021/03/17 11:21:19;;;;;;;8.23;1.67;;;12.60;93.90;;;;;;1891392;74;21167;-67
2021/03/17 11:23:47;;;;;;;5.33;1.47;;;12.80;94.00;;;;;;1894428;74;21193;-67
2021/03/17 11:26:23;;;;;;;9.08;1.50;;;13.00;93.40;;;;;;1891135;74;21367;-67
2021/03/17 11:28:52;;;;;;;6.45;1.60;;;13.30;92.50;;;;;;1892431;74;21605;-69
2021/03/17 11:31:34;;;;;;;7.17;1.75;;;13.40;92.80;;;;;;1889071;74;21150;-68
2021/03/17 11:34:04;;;;;;;8.20;1.60;;;13.60;91.20;;;;;;1890458;74;21294;-68
2021/03/17 11:36:31;;;;;;;10.45;1.90;;;13.60;91.20;;;;;;1891780;74;21106;-68
2021/03/17 11:39:01;;;;;;;5.67;1.70;;;13.60;92.90;;;;;;1892599;74;21177;-68
2021/03/17 11:41:29;;;;;;;7.42;1.40;;;13.60;92.40;;;;;;1893216;74;21100;-68
2021/03/17 11:43:56;;;;;;;8.80;1.50;;;13.60;93.00;;;;;;1896056;74;21087;-68
2021/03/17 11:46:24;;;;;;;5.83;1.60;;;13.90;92.30;;;;;;1890501;74;21118;-68
2021/03/17 11:48:52;;;;;;;6.92;1.72;;;14.10;92.10;;;;;;1890845;74;21122;-68
2021/03/17 11:51:21;;;;;;;7.90;1.72;;;14.20;91.80;;;;;;1892907;74;21180;-68
2021/03/17 11:53:49;;;;;;;6.60;1.52;;;14.20;90.90;;;;;;1892316;74;21733;-68
2021/03/17 11:56:18;;;;;;;8.25;1.85;;;14.10;91.00;;;;;;1894801;74;21125;-68
2021/03/17 11:58:46;;;;;;;7.53;1.60;;;14.00;91.80;;;;;;1891682;73;21592;-68
2021/03/17 12:01:13;;;;;;;6.87;1.40;;;13.90;91.70;;;;;;1893744;74;21095;-69
2021/03/17 12:03:41;;;;;;;8.58;1.55;;;13.70;91.90;;;;;;1890558;74;21208;-68
2021/03/17 12:06:10;;;;;;;6.15;1.25;;;13.70;92.00;;;;;;1893668;74;21138;-68
2021/03/17 12:08:38;;;;;;;11.10;2.17;;;13.80;91.80;;;;;;1898103;74;20998;-69
2021/03/17 12:11:06;;;;;;;12.45;5.45;;;13.90;91.40;;;;;;1893369;74;21020;-69
2021/03/17 12:13:33;;;;;;;7.53;1.92;;;13.80;91.00;;;;;;1891356;74;21071;-69
2021/03/17 12:16:01;;;;;;;10.88;1.80;;;13.70;91.30;;;;;;1897225;74;21110;-69
2021/03/17 12:18:28;;;;;;;8.10;1.82;;;13.50;91.80;;;;;;1892173;74;20988;-69
2021/03/17 12:20:56;;;;;;;7.83;1.72;;;13.30;92.20;;;;;;1896956;74;21518;-69
2021/03/17 12:23:23;;;;;;;7.35;1.45;;;13.20;92.00;;;;;;1897230;74;21142;-69
2021/03/17 12:25:51;;;;;;;6.65;1.50;;;13.10;92.30;;;;;;1896465;74;21080;-67
2021/03/17 12:28:18;;;;;;;6.87;1.67;;;13.40;92.70;;;;;;1894928;74;21098;-67
2021/03/17 12:30:46;;;;;;;6.97;1.60;;;13.70;93.00;;;;;;1896454;73;21053;-69
2021/03/17 12:33:13;;;;;;;9.50;1.67;;;14.20;92.90;;;;;;1894441;74;21206;-68
2021/03/17 12:35:41;;;;;;;7.53;1.70;;;14.80;91.80;;;;;;1896565;74;21087;-68
2021/03/17 12:38:08;;;;;;;9.43;1.80;;;15.50;91.30;;;;;;1894790;74;21192;-67
2021/03/17 12:40:36;;;;;;;8.85;1.55;;;16.10;87.90;;;;;;1896468;73;21112;-67
2021/03/17 12:43:04;;;;;;;8.20;2.67;;;16.50;87.70;;;;;;1892507;74;22120;-67
2021/03/17 12:45:32;;;;;;;8.23;1.95;;;16.40;84.60;;;;;;1896680;73;21072;-67
2021/03/17 12:47:59;;;;;;;5.53;1.57;;;16.30;85.00;;;;;;1894861;74;21080;-67
2021/03/17 12:50:28;;;;;;;5.80;1.25;;;16.20;84.70;;;;;;1896758;74;21102;-67
2021/03/17 12:52:56;;;;;;;6.78;1.70;;;16.30;83.90;;;;;;1894708;73;21147;-68
2021/03/17 12:55:23;;;;;;;4.60;1.40;;;16.20;81.40;;;;;;1893731;74;21055;-68
2021/03/17 12:57:51;;;;;;;5.80;1.37;;;15.80;80.70;;;;;;1892475;74;21156;-68
2021/03/17 13:00:22;;;;;;;6.95;1.77;;;15.40;81.70;;;;;;1893183;74;21159;-68
2021/03/17 13:02:49;;;;;;;7.70;1.98;;;15.00;82.80;;;;;;1893398;74;21027;-69
2021/03/17 13:05:19;;;;;;;5.72;1.60;;;14.70;87.00;;;;;;1896937;74;21031;-69
2021/03/17 13:07:46;;;;;;;7.85;1.60;;;14.30;90.60;;;;;;1892551;74;21095;-68
2021/03/17 13:10:16;;;;;;;5.33;1.77;;;14.00;92.50;;;;;;1894213;74;22172;-69
2021/03/17 13:12:46;;;;;;;9.03;1.77;;;13.60;93.30;;;;;;1891604;74;21160;-69
2021/03/17 13:15:15;;;;;;;6.75;1.70;;;13.20;94.50;;;;;;1891116;76;21423;-69
2021/03/17 13:17:44;;;;;;;7.10;1.92;;;12.80;96.00;;;;;;1895162;74;21599;-69
2021/03/17 13:20:14;;;;;;;5.20;1.90;;;12.50;96.70;;;;;;1896055;73;21067;-69
2021/03/17 13:22:42;;;;;;;3.20;1.50;;;12.30;97.40;;;;;;1893849;74;21036;-69
2021/03/17 13:25:10;;;;;;;3.58;1.12;;;12.20;97.60;;;;;;1897294;74;21173;-69
2021/03/17 13:27:38;;;;;;;1.10;0.75;;;12.00;97.10;;;;;;1891773;74;21110;-69
2021/03/17 13:30:08;;;;;;;2.42;0.78;;;11.90;98.00;;;;;;1892549;74;21070;-69
2021/03/17 13:32:38;;;;;;;4.47;1.00;;;11.80;97.20;;;;;;1891647;74;21023;-69
2021/03/17 13:35:06;;;;;;;1.50;0.60;;;11.80;97.50;;;;;;1893335;74;21129;-68
2021/03/17 13:37:35;;;;;;;1.98;1.05;;;11.90;97.80;;;;;;1896073;73;21093;-68
2021/03/17 13:40:06;;;;;;;2.35;0.90;;;12.10;97.00;;;;;;1895364;74;21450;-68
2021/03/17 13:42:34;;;;;;;2.97;1.90;;;12.30;97.00;;;;;;1896434;74;21151;-70
2021/03/17 13:45:03;;;;;;;1.40;0.70;;;12.50;97.10;;;;;;1893874;74;21088;-69
2021/03/17 13:47:31;;;;;;;1.80;0.75;;;12.60;96.00;;;;;;1895476;74;21541;-69
2021/03/17 13:49:58;;;;;;;1.92;0.65;;;12.60;95.40;;;;;;1894498;73;21196;-70
2021/03/17 13:52:26;;;;;;;0.72;0.40;;;12.60;93.90;;;;;;1896009;74;21153;-69
2021/03/17 13:54:53;;;;;;;2.15;0.70;;;12.80;94.00;;;;;;1892602;74;21631;-69
2021/03/17 13:57:21;;;;;;;2.90;0.68;;;13.30;94.60;;;;;;1890045;74;21047;-69
2021/03/17 13:59:48;;;;;;;0.98;0.60;;;14.40;94.00;;;;;;1892141;74;21149;-69
2021/03/17 14:02:16;;;;;;;1.60;0.88;;;15.60;92.80;;;;;;1895315;74;21160;-69
2021/03/17 14:04:43;;;;;;;1.52;0.50;;;16.40;89.80;;;;;;1894289;74;21573;-69
2021/03/17 14:07:11;;;;;;;1.20;0.57;;;16.50;87.30;;;;;;1893770;74;21031;-68
2021/03/17 14:09:38;;;;;;;2.62;0.60;;;16.50;87.50;;;;;;1890075;74;21160;-69
2021/03/17 14:12:07;;;;;;;4.65;2.70;;;16.50;83.90;;;;;;1894010;74;21083;-69
2021/03/17 14:14:35;;;;;;;3.40;1.42;;;16.30;82.20;;;;;;1892338;74;21207;-69
2021/03/17 14:17:02;;;;;;;3.45;0.85;;;16.00;83.90;;;;;;1895896;74;21130;-71
2021/03/17 14:19:30;;;;;;;0.95;0.50;;;15.60;85.20;;;;;;1891622;74;21173;-69
2021/03/17 14:21:57;;;;;;;2.20;0.68;;;15.20;87.60;;;;;;1894810;74;21212;-68
2021/03/17 14:24:25;;;;;;;2.72;1.20;;;14.80;89.40;;;;;;1890287;74;21138;-69
2021/03/17 14:26:53;;;;;;;2.00;1.05;;;14.50;90.60;;;;;;1895444;74;21118;-68
2021/03/17 14:29:21;;;;;;;4.60;1.80;;;14.10;91.20;;;;;;1894705;73;21184;-68
2021/03/17 14:31:49;;;;;;;11.73;4.47;;;13.80;92.00;;;;;;1893760;74;21099;-68
2021/03/17 14:34:17;;;;;;;6.70;2.35;;;13.40;93.30;;;;;;1895925;74;21068;-69
2021/03/17 14:36:44;;;;;;;3.60;1.30;;;13.20;93.80;;;;;;1897813;74;21773;-68
2021/03/17 14:39:12;;;;;;;5.30;1.70;;;13.00;94.50;;;;;;1894341;74;21089;-69
2021/03/17 14:41:39;;;;;;;6.20;1.80;;;12.80;94.70;;;;;;1897647;74;21096;-69
2021/03/17 14:44:07;;;;;;;5.67;1.60;;;12.70;95.30;;;;;;1895359;74;21158;-69
2021/03/17 14:46:35;;;;;;;3.55;1.50;;;12.60;95.40;;;;;;1892909;74;21000;-69
2021/03/17 14:49:03;;;;;;;4.78;1.50;;;12.60;95.70;;;;;;1893392;74;21109;-69
2021/03/17 14:51:31;;;;;;;4.55;1.60;;;12.60;96.00;;;;;;1891517;74;21040;-70
2021/03/17 14:53:58;;;;;;;3.10;1.25;;;12.80;96.00;;;;;;1895207;74;21110;-69
2021/03/17 14:56:26;;;;;;;4.00;1.37;;;12.90;95.20;;;;;;1894533;74;21632;-69
2021/03/17 14:58:53;;;;;;;5.05;1.45;;;13.00;94.80;;;;;;1894796;74;21068;-70
2021/03/17 15:01:21;;;;;;;5.12;1.50;;;13.30;94.70;;;;;;1891951;74;21119;-69
2021/03/17 15:03:48;;;;;;;4.42;1.45;;;13.80;94.60;;;;;;1894549;74;21130;-71
2021/03/17 15:06:16;;;;;;;5.08;1.40;;;14.60;94.10;;;;;;1894141;74;21568;-69
2021/03/17 15:08:43;;;;;;;8.18;1.87;;;15.30;92.70;;;;;;1895068;74;21084;-70
2021/03/17 15:11:11;;;;;;;6.00;1.77;;;15.90;91.70;;;;;;1894655;74;21107;-69
2021/03/17 15:13:38;;;;;;;6.53;1.50;;;16.40;91.50;;;;;;1890524;74;21595;-69
2021/03/17 15:16:06;;;;;;;4.28;1.65;;;16.50;90.50;;;;;;1893632;74;21157;-69
2021/03/17 15:18:34;;;;;;;6.42;1.87;;;16.20;90.30;;;;;;1895085;74;21027;-69
2021/03/17 15:21:02;;;;;;;4.40;1.60;;;15.40;90.20;;;;;;1890241;74;21047;-69
2021/03/17 15:23:29;;;;;;;7.62;1.98;;;14.70;91.30;;;;;;1895463;74;21079;-70
2021/03/17 15:25:57;;;;;;;5.00;1.55;;;14.10;92.70;;;;;;1891570;74;21237;-69
2021/03/17 15:28:25;;;;;;;2.55;1.30;;;13.70;92.60;;;;;;1895755;74;21118;-70
2021/03/17 15:30:52;;;;;;;3.55;0.80;;;13.30;92.30;;;;;;1893416;74;21090;-70
2021/03/17 15:33:20;;;;;;;4.12;1.15;;;13.00;92.70;;;;;;1896188;74;21117;-70
2021/03/17 15:35:47;;;;;;;3.72;1.32;;;12.70;93.00;;;;;;1898081;74;21494;-70
2021/03/17 15:38:15;;;;;;;3.20;1.02;;;12.50;93.20;;;;;;1893592;74;21616;-69
2021/03/17 15:40:42;;;;;;;2.50;0.82;;;12.30;93.60;;;;;;1894675;74;21133;-70
2021/03/17 15:43:11;;;;;;;3.25;0.95;;;12.10;93.80;;;;;;1896019;74;21096;-69
2021/03/17 15:45:39;;;;;;;1.45;0.72;;;11.90;94.00;;;;;;1894290;74;21099;-70
2021/03/17 15:48:07;;;;;;;2.83;0.90;;;11.80;94.60;;;;;;1894880;74;21177;-70
2021/03/17 15:50:40;;;;;;;4.55;1.52;;;11.80;94.80;;;;;;1894675;73;21629;-70